Flight Briefing for CPX956

Departure Arrival
Travis Air Force Base (KSUU)
Click to view FAA NOTAMS
Sacramento International Airport (KSMF)
Click to view FAA NOTAMS
Departure Time Arrival Time
N/A N/A
Aircraft Distance
B757-200SF 30nm
Departure METAR Arrival METAR
KSUU 250158Z AUTO 23019KT 10SM CLR 19/13 A2988 RMK AO2 PK WND 26026/30 SLP125 T01880125 $ KSMF 250153Z 18012KT 10SM SCT150 OVC200 21/14 A2986 RMK AO2 SLP110 T02110139
Suggested Route





View recent IFR Routes data
Notes
EMPTY | NON-REVENUE REPOSITIONING LEG | VFR DEPARTURE RCMD IF WX PERMITS

Charts and Procedures

Charts for KSUU
No chart available
Charts for KSMF
No chart available

Windy.com Weather Map